createdAt,value
2022-09-02T00:01:25.740Z,36.97
2022-09-02T00:03:57.599Z,36.95
2022-09-02T00:06:26.257Z,36.99
2022-09-02T00:08:54.121Z,37.11
2022-09-02T00:11:25.576Z,36.98
2022-09-02T00:13:55.744Z,37.01
2022-09-02T00:16:25.055Z,37.03
2022-09-02T00:18:54.351Z,37.20
2022-09-02T00:21:22.910Z,36.93
2022-09-02T00:23:51.187Z,37.26
2022-09-02T00:26:19.202Z,37.25
2022-09-02T00:28:51.047Z,37.17
2022-09-02T00:31:26.195Z,37.13
2022-09-02T00:33:54.517Z,37.43
2022-09-02T00:36:22.792Z,37.21
2022-09-02T00:38:50.531Z,37.14
2022-09-02T00:41:21.773Z,37.11
2022-09-02T00:43:51.755Z,37.33
2022-09-02T00:46:21.730Z,37.17
2022-09-02T00:48:57.042Z,37.34
2022-09-02T00:51:25.509Z,37.47
2022-09-02T00:53:54.019Z,37.23
2022-09-02T00:56:24.451Z,37.27
2022-09-02T00:58:54.163Z,37.25
2022-09-02T01:01:22.747Z,37.38
2022-09-02T01:03:52.899Z,37.42
2022-09-02T01:06:24.428Z,37.40
2022-09-02T01:08:59.444Z,37.50
2022-09-02T01:11:32.510Z,37.47
2022-09-02T01:14:01.798Z,37.33
2022-09-02T01:16:34.976Z,37.56
2022-09-02T01:19:11.629Z,37.42
2022-09-02T01:21:39.405Z,37.52
2022-09-02T01:24:09.120Z,37.51
2022-09-02T01:26:36.761Z,37.53
2022-09-02T01:29:04.634Z,37.55
2022-09-02T01:31:32.345Z,37.60
2022-09-02T01:34:00.066Z,37.67
2022-09-02T01:36:27.826Z,37.57
2022-09-02T01:38:55.699Z,37.69
2022-09-02T01:41:24.724Z,37.72
2022-09-02T01:43:52.763Z,37.65
2022-09-02T01:46:20.509Z,37.68
2022-09-02T01:48:48.214Z,37.61
2022-09-02T01:51:18.604Z,37.63
2022-09-02T01:53:46.722Z,37.79
2022-09-02T01:56:14.555Z,37.72
2022-09-02T01:58:43.671Z,37.76
2022-09-02T02:01:11.506Z,37.75
2022-09-02T02:03:39.810Z,37.76
2022-09-02T02:06:11.190Z,37.79
2022-09-02T02:08:39.722Z,37.77
2022-09-02T02:11:08.822Z,37.99
2022-09-02T02:13:36.830Z,37.77
2022-09-02T02:16:06.214Z,37.87
2022-09-02T02:18:33.955Z,37.96
2022-09-02T02:21:01.601Z,38.04
2022-09-02T02:23:29.284Z,37.98
2022-09-02T02:25:56.970Z,38.10
2022-09-02T02:28:24.738Z,37.93
2022-09-02T02:30:52.482Z,38.00
2022-09-02T02:33:21.559Z,38.10
2022-09-02T02:35:53.778Z,38.14
2022-09-02T02:38:24.065Z,38.12
2022-09-02T02:40:55.771Z,38.17
2022-09-02T02:43:23.528Z,38.19
2022-09-02T02:45:51.958Z,38.10
2022-09-02T02:48:21.037Z,38.04
2022-09-02T02:50:48.855Z,38.27
2022-09-02T02:53:17.538Z,38.23
2022-09-02T02:55:45.699Z,38.21
2022-09-02T02:58:17.824Z,38.14
2022-09-02T03:00:46.257Z,38.19
2022-09-02T03:03:14.878Z,38.20
2022-09-02T03:05:43.966Z,38.31
2022-09-02T03:08:12.129Z,38.36
2022-09-02T03:10:42.001Z,38.25
2022-09-02T03:13:11.573Z,38.38
2022-09-02T03:15:40.223Z,38.32
2022-09-02T03:18:08.395Z,38.39
2022-09-02T03:20:36.863Z,38.32
2022-09-02T03:23:05.963Z,38.33
2022-09-02T03:25:36.155Z,38.42
2022-09-02T03:28:04.913Z,38.38
2022-09-02T03:30:33.966Z,38.49
2022-09-02T03:33:04.250Z,38.44
2022-09-02T03:35:33.106Z,38.53
2022-09-02T03:38:01.558Z,38.55
2022-09-02T03:40:31.057Z,38.52
2022-09-02T03:43:00.424Z,38.58
2022-09-02T03:45:29.287Z,38.63
2022-09-02T03:47:58.662Z,38.67
2022-09-02T03:50:29.883Z,38.73
2022-09-02T03:52:59.059Z,38.63
2022-09-02T03:55:27.137Z,38.77
2022-09-02T03:57:56.296Z,38.73
2022-09-02T04:00:29.031Z,38.69
2022-09-02T04:02:57.369Z,38.63
2022-09-02T04:05:25.623Z,38.87
2022-09-02T04:07:53.332Z,38.83
2022-09-02T04:10:22.068Z,38.79
2022-09-02T04:12:50.256Z,38.79
2022-09-02T04:15:20.374Z,38.77
2022-09-02T04:17:48.166Z,38.88
2022-09-02T04:20:17.561Z,38.99
2022-09-02T04:22:45.733Z,38.99
2022-09-02T04:25:13.591Z,38.94
2022-09-02T04:27:41.686Z,39.05
2022-09-02T04:30:10.824Z,39.19
2022-09-02T04:32:40.898Z,39.07
2022-09-02T04:35:09.089Z,39.14
2022-09-02T04:37:36.730Z,39.08
2022-09-02T04:40:04.886Z,39.16
2022-09-02T04:42:32.697Z,39.21
2022-09-02T04:45:00.401Z,39.24
2022-09-02T04:47:28.182Z,39.29
2022-09-02T04:49:58.429Z,39.21
2022-09-02T04:52:26.562Z,39.24
2022-09-02T04:54:54.221Z,39.46
2022-09-02T04:57:22.400Z,39.26
2022-09-02T04:59:50.083Z,39.47
2022-09-02T05:02:18.281Z,39.47
2022-09-02T05:04:46.234Z,39.41
2022-09-02T05:07:16.075Z,39.50
2022-09-02T05:09:44.369Z,39.38
2022-09-02T05:12:12.092Z,39.58
2022-09-02T05:14:40.350Z,39.41
2022-09-02T05:17:08.152Z,39.73
2022-09-02T05:19:35.953Z,39.59
2022-09-02T05:22:05.023Z,39.59
2022-09-02T05:24:34.167Z,39.59
2022-09-02T05:27:01.895Z,39.64
2022-09-02T05:29:29.605Z,39.67
2022-09-02T05:31:57.466Z,39.68
2022-09-02T05:34:25.206Z,39.75
2022-09-02T05:36:53.860Z,39.89
2022-09-02T05:39:21.734Z,39.75
2022-09-02T05:41:50.878Z,39.91
2022-09-02T05:44:18.691Z,39.82
2022-09-02T05:46:48.952Z,39.83
2022-09-02T05:49:18.255Z,40.00
2022-09-02T05:51:48.054Z,39.95
2022-09-02T05:54:19.046Z,39.85
2022-09-02T05:56:48.903Z,39.89
2022-09-02T05:59:18.937Z,40.14
2022-09-02T06:01:46.986Z,40.16
2022-09-02T06:04:15.526Z,40.21
2022-09-02T06:06:43.581Z,40.20
2022-09-02T06:09:14.609Z,40.16
2022-09-02T06:11:44.618Z,40.17
2022-09-02T06:14:13.944Z,40.10
2022-09-02T06:16:43.937Z,40.10
2022-09-02T06:19:13.570Z,40.28
2022-09-02T06:21:44.267Z,40.36
2022-09-02T06:24:13.302Z,40.18
2022-09-02T06:26:42.549Z,40.43
2022-09-02T06:29:11.409Z,40.40
2022-09-02T06:31:43.968Z,40.29
2022-09-02T06:34:13.686Z,40.47
2022-09-02T06:36:42.843Z,40.32
2022-09-02T06:39:12.901Z,40.55
2022-09-02T06:41:42.571Z,40.45
2022-09-02T06:44:11.907Z,40.67
2022-09-02T06:46:47.782Z,40.64
2022-09-02T06:49:16.864Z,40.67
2022-09-02T06:51:47.007Z,40.64
2022-09-02T06:54:16.926Z,40.70
2022-09-02T06:56:49.199Z,40.77
2022-09-02T06:59:18.046Z,40.67
2022-09-02T07:01:47.607Z,40.83
2022-09-02T07:04:33.431Z,40.71
2022-09-02T07:07:01.119Z,40.83
2022-09-02T07:09:31.261Z,40.90
2022-09-02T07:12:04.215Z,40.93
2022-09-02T07:14:36.963Z,40.96
2022-09-02T07:17:07.037Z,41.01
2022-09-02T07:19:34.816Z,40.88
2022-09-02T07:22:03.993Z,41.18
2022-09-02T07:24:31.788Z,40.89
2022-09-02T07:26:59.510Z,41.11
2022-09-02T07:29:27.220Z,41.14
2022-09-02T07:31:54.933Z,41.11
2022-09-02T07:34:24.102Z,41.28
2022-09-02T07:36:52.592Z,41.02
2022-09-02T07:39:21.081Z,41.39
2022-09-02T07:41:50.725Z,41.39
2022-09-02T07:44:19.767Z,41.28
2022-09-02T07:46:47.802Z,41.37
2022-09-02T07:49:20.836Z,41.68
2022-09-02T07:51:52.807Z,41.34
2022-09-02T07:54:23.187Z,41.31
2022-09-02T07:56:51.179Z,41.59
2022-09-02T07:59:21.231Z,41.52
2022-09-02T08:01:49.372Z,41.48
2022-09-02T08:04:18.689Z,41.46
2022-09-02T08:06:46.755Z,41.67
2022-09-02T08:09:15.880Z,41.52
2022-09-02T08:11:46.540Z,41.62
2022-09-02T08:14:19.082Z,41.65
2022-09-02T08:16:48.283Z,41.87
2022-09-02T08:19:16.369Z,41.75
2022-09-02T08:21:44.161Z,41.69
2022-09-02T08:24:11.892Z,41.84
2022-09-02T08:26:41.084Z,41.86
2022-09-02T08:29:10.175Z,41.85
2022-09-02T08:31:38.829Z,41.80
2022-09-02T08:34:06.949Z,41.72
2022-09-02T08:36:34.671Z,41.90
2022-09-02T08:39:04.700Z,41.99
2022-09-02T08:41:39.986Z,41.84
2022-09-02T08:44:14.914Z,42.01
2022-09-02T08:46:42.790Z,41.96
2022-09-02T08:49:17.054Z,41.93
2022-09-02T08:51:52.853Z,41.86
2022-09-02T08:54:27.338Z,41.96
2022-09-02T08:56:56.305Z,41.86
2022-09-02T08:59:27.700Z,42.20
2022-09-02T09:02:01.220Z,41.98
2022-09-02T09:04:54.634Z,42.24
2022-09-02T09:07:30.763Z,42.08
2022-09-02T09:10:09.708Z,42.18
2022-09-02T09:12:52.440Z,42.18
2022-09-02T09:15:31.817Z,42.35
2022-09-02T09:18:01.810Z,42.22
2022-09-02T09:20:32.959Z,42.53
2022-09-02T09:23:03.082Z,42.47
2022-09-02T09:25:31.006Z,42.67
2022-09-02T09:27:59.043Z,42.44
2022-09-02T09:30:28.999Z,42.63
2022-09-02T09:32:59.983Z,42.52
2022-09-02T09:35:29.663Z,42.61
2022-09-02T09:37:57.597Z,42.29
2022-09-02T09:40:31.925Z,42.58
2022-09-02T09:43:14.534Z,42.49
2022-09-02T09:45:46.165Z,43.07
2022-09-02T09:48:23.070Z,42.92
2022-09-02T09:51:11.535Z,43.00
2022-09-02T09:53:39.805Z,42.71
2022-09-02T09:56:08.890Z,42.64
2022-09-02T09:58:44.633Z,42.81
2022-09-02T10:01:16.040Z,42.85
2022-09-02T10:03:49.622Z,42.85
2022-09-02T10:06:23.409Z,43.11
2022-09-02T10:08:56.974Z,42.89
2022-09-02T10:11:26.803Z,42.89
2022-09-02T10:14:00.646Z,43.23
2022-09-02T10:16:54.379Z,43.01
2022-09-02T10:19:28.287Z,43.06
2022-09-02T10:22:38.503Z,43.06
2022-09-02T10:25:30.430Z,43.02
2022-09-02T10:28:07.581Z,43.18
2022-09-02T10:30:44.111Z,43.23
2022-09-02T10:33:20.657Z,44.08
2022-09-02T10:35:53.132Z,43.67
2022-09-02T10:38:37.163Z,43.43
2022-09-02T10:41:20.194Z,43.44
2022-09-02T10:44:00.844Z,42.85
2022-09-02T10:46:38.036Z,42.63
2022-09-02T10:49:19.573Z,42.36
2022-09-02T10:51:56.554Z,42.56
2022-09-02T10:54:37.713Z,42.90
2022-09-02T10:57:11.290Z,42.29
2022-09-02T10:59:44.731Z,41.91
2022-09-02T11:02:19.002Z,42.63
2022-09-02T11:04:52.964Z,42.21
2022-09-02T11:07:28.690Z,41.99
2022-09-02T11:10:00.649Z,41.88
2022-09-02T11:12:33.961Z,41.94
2022-09-02T11:15:10.952Z,42.03
2022-09-02T11:17:43.323Z,42.00
2022-09-02T11:20:19.051Z,41.97
2022-09-02T11:22:54.605Z,42.00
2022-09-02T11:25:25.456Z,42.15
2022-09-02T11:28:00.551Z,42.56
2022-09-02T11:30:37.039Z,41.89
2022-09-02T11:33:17.315Z,42.49
2022-09-02T11:35:46.525Z,42.74
2022-09-02T11:38:31.266Z,42.27
2022-09-02T11:44:30.934Z,41.53
2022-09-02T11:47:10.050Z,41.82
2022-09-02T11:50:02.648Z,41.38
2022-09-02T11:52:46.001Z,41.22
2022-09-02T11:55:18.757Z,41.85
2022-09-02T11:57:54.153Z,41.02
2022-09-02T12:00:31.864Z,41.19
2022-09-02T12:03:28.479Z,41.61
2022-09-02T12:06:11.053Z,41.42
2022-09-02T12:09:13.159Z,40.37
2022-09-02T12:11:48.450Z,40.40
2022-09-02T12:14:56.026Z,40.67
2022-09-02T12:17:46.223Z,41.95
2022-09-02T12:20:52.292Z,41.03
2022-09-02T12:23:57.720Z,39.45
2022-09-02T12:26:29.304Z,38.89
2022-09-02T12:29:12.909Z,38.13
2022-09-02T12:34:40.392Z,38.30
2022-09-02T12:37:08.153Z,39.26
2022-09-02T12:39:57.020Z,38.85
2022-09-02T12:42:33.363Z,39.99
2022-09-02T12:45:05.906Z,39.69
2022-09-02T12:47:47.802Z,40.51
2022-09-02T12:50:23.331Z,38.30
2022-09-02T12:52:52.542Z,37.41
2022-09-02T12:55:24.966Z,37.02
2022-09-02T12:57:56.867Z,38.09
2022-09-02T13:00:34.627Z,37.29
2022-09-02T13:03:22.713Z,37.91
2022-09-02T13:05:57.187Z,37.45
2022-09-02T13:09:15.523Z,37.33
2022-09-02T13:12:18.351Z,36.45
2022-09-02T13:15:04.122Z,36.41
2022-09-02T13:18:11.414Z,36.11
2022-09-02T13:21:05.435Z,35.31
2022-09-02T13:24:14.210Z,35.40
2022-09-02T13:27:12.442Z,38.02
2022-09-02T13:30:01.874Z,36.94
2022-09-02T13:32:31.541Z,36.64
2022-09-02T13:35:03.374Z,36.87
2022-09-02T13:37:33.551Z,35.45
2022-09-02T13:40:05.061Z,35.90
2022-09-02T13:42:33.293Z,35.91
2022-09-02T13:45:14.243Z,35.97
2022-09-02T13:47:46.481Z,37.71
2022-09-02T13:50:18.795Z,37.50
2022-09-02T13:54:05.134Z,36.58
2022-09-02T13:55:39.516Z,38.15
2022-09-02T13:58:18.846Z,36.14
2022-09-02T14:00:48.301Z,35.85
2022-09-02T14:03:19.183Z,36.08
2022-09-02T14:05:49.315Z,34.78
2022-09-02T14:08:22.685Z,34.28
2022-09-02T14:10:52.724Z,34.09
2022-09-02T14:13:21.509Z,34.98
2022-09-02T14:15:50.697Z,35.86
2022-09-02T14:18:20.321Z,37.07
2022-09-02T14:21:00.105Z,37.04
2022-09-02T14:23:33.375Z,35.67
2022-09-02T14:26:03.365Z,35.04
2022-09-02T14:28:34.468Z,35.33
2022-09-02T14:31:06.083Z,35.38
2022-09-02T14:33:42.499Z,36.04
2022-09-02T14:36:14.007Z,35.67
2022-09-02T14:38:52.385Z,34.69
2022-09-02T14:41:23.330Z,34.60
2022-09-02T14:43:53.968Z,34.21
2022-09-02T14:46:29.482Z,34.50
2022-09-02T14:49:02.693Z,36.11
2022-09-02T14:51:37.207Z,36.39
2022-09-02T14:54:06.135Z,35.40
2022-09-02T14:56:51.529Z,35.50
2022-09-02T14:59:20.721Z,35.41
2022-09-02T15:01:52.079Z,35.66
2022-09-02T15:04:20.527Z,37.20
2022-09-02T15:06:49.086Z,35.95
2022-09-02T15:09:17.290Z,36.25
2022-09-02T15:11:49.366Z,36.08
2022-09-02T15:14:17.053Z,36.94
2022-09-02T15:16:44.743Z,36.45
2022-09-02T15:19:14.392Z,36.21
2022-09-02T15:21:42.069Z,35.93
2022-09-02T15:24:09.830Z,36.91
2022-09-02T15:26:37.554Z,36.88
2022-09-02T15:29:05.252Z,37.70
2022-09-02T15:31:33.000Z,36.73
2022-09-02T15:34:02.345Z,37.37
2022-09-02T15:36:31.416Z,37.39
2022-09-02T15:39:00.334Z,37.09
2022-09-02T15:41:31.426Z,36.38
2022-09-02T15:44:00.515Z,37.39
2022-09-02T15:46:30.190Z,34.98
2022-09-02T15:49:02.846Z,36.34
2022-09-02T15:51:33.047Z,36.71
2022-09-02T15:54:02.225Z,36.28
2022-09-02T15:56:31.275Z,36.61
2022-09-02T15:58:59.926Z,36.54
2022-09-02T16:01:28.677Z,36.81
2022-09-02T16:03:56.889Z,36.54
2022-09-02T16:06:24.611Z,36.57
2022-09-02T16:08:53.636Z,36.38
2022-09-02T16:11:21.522Z,36.39
2022-09-02T16:13:49.549Z,35.76
2022-09-02T16:16:17.971Z,36.28
2022-09-02T16:18:51.177Z,36.55
2022-09-02T16:21:19.795Z,36.10
2022-09-02T16:23:49.534Z,34.73
2022-09-02T16:26:25.057Z,36.05
2022-09-02T16:28:55.515Z,36.21
2022-09-02T16:31:25.207Z,35.88
2022-09-02T16:33:53.859Z,34.49
2022-09-02T16:36:21.814Z,35.52
2022-09-02T16:38:49.539Z,36.78
2022-09-02T16:41:27.205Z,36.05
2022-09-02T16:43:55.392Z,36.07
2022-09-02T16:46:23.150Z,36.43
2022-09-02T16:48:51.187Z,36.14
2022-09-02T16:51:19.022Z,36.60
2022-09-02T16:53:47.147Z,35.54
2022-09-02T16:56:15.487Z,35.49
2022-09-02T16:58:44.623Z,36.23
2022-09-02T17:01:13.591Z,35.70
2022-09-02T17:03:41.915Z,36.12
2022-09-02T17:06:10.261Z,36.12
2022-09-02T17:08:38.423Z,35.97
2022-09-02T17:11:18.221Z,36.46
2022-09-02T17:13:47.846Z,36.55
2022-09-02T17:16:15.718Z,36.84
2022-09-02T17:18:43.469Z,36.90
2022-09-02T17:21:21.998Z,36.85
2022-09-02T17:23:50.356Z,36.70
2022-09-02T17:26:18.783Z,36.39
2022-09-02T17:28:47.899Z,36.71
2022-09-02T17:31:20.443Z,36.18
2022-09-02T17:33:48.459Z,36.22
2022-09-02T17:36:16.653Z,36.16
2022-09-02T17:38:44.958Z,36.14
2022-09-02T17:41:30.276Z,36.05
2022-09-02T17:43:59.735Z,36.14
2022-09-02T17:46:27.515Z,36.11
2022-09-02T17:49:15.782Z,36.03
2022-09-02T17:51:44.841Z,36.14
2022-09-02T17:54:13.511Z,36.45
2022-09-02T17:56:57.611Z,36.09
2022-09-02T17:59:31.216Z,36.03
2022-09-02T18:02:28.037Z,36.01
2022-09-02T18:05:03.922Z,35.85
2022-09-02T18:07:41.235Z,35.84
2022-09-02T18:10:08.958Z,35.89
2022-09-02T18:12:37.961Z,36.06
2022-09-02T18:15:08.356Z,36.33
2022-09-02T18:17:38.055Z,35.86
2022-09-02T18:20:13.274Z,35.88
2022-09-02T18:23:09.942Z,35.79
2022-09-02T18:25:51.595Z,35.89
2022-09-02T18:28:30.151Z,35.86
2022-09-02T18:31:12.429Z,35.98
2022-09-02T18:33:56.005Z,35.76
2022-09-02T18:36:35.785Z,36.12
2022-09-02T18:39:19.070Z,36.06
2022-09-02T18:42:01.907Z,35.96
2022-09-02T18:44:39.104Z,36.30
2022-09-02T18:47:14.363Z,36.12
2022-09-02T18:49:44.647Z,36.08
2022-09-02T18:52:12.714Z,35.86
2022-09-02T18:54:47.086Z,36.22
2022-09-02T18:57:16.096Z,35.93
2022-09-02T18:59:50.984Z,35.90
2022-09-02T19:02:29.286Z,36.11
2022-09-02T19:04:59.101Z,35.93
2022-09-02T19:07:46.556Z,35.99
2022-09-02T19:10:14.719Z,36.33
2022-09-02T19:12:43.703Z,35.96
2022-09-02T19:15:13.424Z,36.31
2022-09-02T19:17:43.009Z,36.15
2022-09-02T19:20:11.138Z,36.17
2022-09-02T19:22:41.984Z,36.23
2022-09-02T19:25:13.273Z,36.17
2022-09-02T19:27:44.761Z,36.12
2022-09-02T19:30:14.818Z,35.77
2022-09-02T19:32:47.554Z,35.84
2022-09-02T19:35:18.173Z,35.93
2022-09-02T19:37:47.113Z,35.51
2022-09-02T19:40:19.584Z,35.75
2022-09-02T19:42:47.490Z,35.60
2022-09-02T19:45:16.799Z,35.92
2022-09-02T19:50:34.598Z,35.54
2022-09-02T19:53:02.714Z,35.73
2022-09-02T19:55:33.530Z,35.48
2022-09-02T19:58:01.288Z,35.44
2022-09-02T20:00:29.083Z,35.88
2022-09-02T20:02:58.156Z,35.90
2022-09-02T20:05:26.009Z,35.59
2022-09-02T20:07:53.788Z,35.36
2022-09-02T20:10:22.598Z,35.62
2022-09-02T20:12:56.205Z,35.81
2022-09-02T20:15:23.964Z,35.42
2022-09-02T20:17:51.669Z,35.82
2022-09-02T20:20:23.858Z,35.50
2022-09-02T20:22:56.101Z,35.74
2022-09-02T20:25:33.517Z,35.78
2022-09-02T20:28:13.871Z,35.29
2022-09-02T20:30:48.606Z,35.71
2022-09-02T20:33:19.299Z,35.82
2022-09-02T20:36:02.494Z,35.91
2022-09-02T20:38:58.133Z,35.75
2022-09-02T20:41:33.899Z,35.86
2022-09-02T20:44:23.694Z,35.52
2022-09-02T20:47:05.748Z,35.56
2022-09-02T20:49:53.984Z,35.81
2022-09-02T20:52:31.386Z,35.80
2022-09-02T20:55:05.845Z,35.50
2022-09-02T20:57:48.474Z,35.56
2022-09-02T21:00:20.451Z,35.57
2022-09-02T21:02:55.961Z,35.49
2022-09-02T21:05:29.123Z,35.58
2022-09-02T21:08:05.329Z,35.92
2022-09-02T21:10:37.305Z,35.77
2022-09-02T21:13:11.164Z,35.63
2022-09-02T21:15:45.829Z,35.76
2022-09-02T21:18:20.111Z,35.43
2022-09-02T21:20:54.039Z,35.58
2022-09-02T21:23:28.389Z,35.49
2022-09-02T21:25:57.979Z,35.48
2022-09-02T21:28:33.687Z,35.53
2022-09-02T21:31:06.136Z,35.75
2022-09-02T21:33:36.170Z,35.33
2022-09-02T21:36:06.147Z,35.28
2022-09-02T21:38:40.503Z,35.81
2022-09-02T21:41:21.375Z,35.56
2022-09-02T21:43:56.678Z,35.48
2022-09-02T21:46:33.232Z,35.30
2022-09-02T21:49:10.669Z,35.55
2022-09-02T21:51:46.717Z,35.83
2022-09-02T21:54:35.219Z,35.76
2022-09-02T21:57:20.000Z,35.88
2022-09-02T22:00:01.474Z,35.82
2022-09-02T22:02:38.797Z,35.56
2022-09-02T22:05:21.050Z,35.52
2022-09-02T22:07:51.614Z,35.74
2022-09-02T22:10:29.220Z,35.55
2022-09-02T22:13:03.433Z,35.86
2022-09-02T22:15:43.473Z,35.60
2022-09-02T22:18:20.909Z,35.51
2022-09-02T22:20:52.226Z,35.99
2022-09-02T22:23:26.206Z,35.85
2022-09-02T22:25:56.147Z,36.00
2022-09-02T22:28:32.401Z,36.11
2022-09-02T22:31:05.546Z,35.93
2022-09-02T22:33:40.414Z,36.07
2022-09-02T22:36:18.158Z,35.72
2022-09-02T22:38:49.705Z,35.99
2022-09-02T22:41:26.168Z,35.67
2022-09-02T22:43:56.486Z,35.56
2022-09-02T22:46:53.932Z,35.96
2022-09-02T22:49:45.380Z,36.09
2022-09-02T22:52:44.928Z,35.67
2022-09-02T22:55:13.930Z,36.08
2022-09-02T22:57:52.248Z,36.01
2022-09-02T23:00:20.695Z,35.91
2022-09-02T23:03:01.794Z,35.68
2022-09-02T23:05:44.959Z,35.99
2022-09-02T23:08:14.304Z,35.81
2022-09-02T23:10:48.899Z,35.87
2022-09-02T23:13:24.771Z,35.78
2022-09-02T23:16:04.694Z,35.85
2022-09-02T23:18:42.990Z,35.99
2022-09-02T23:21:17.781Z,36.14
2022-09-02T23:23:55.755Z,35.79
2022-09-02T23:26:35.358Z,35.85
2022-09-02T23:29:15.684Z,35.69
2022-09-02T23:32:00.428Z,35.81
2022-09-02T23:34:43.644Z,35.82
2022-09-02T23:37:17.895Z,35.88
2022-09-02T23:39:57.873Z,36.10
2022-09-02T23:42:25.989Z,35.78
2022-09-02T23:45:01.450Z,36.01
2022-09-02T23:47:42.500Z,36.13
2022-09-02T23:50:21.311Z,36.05
2022-09-02T23:52:56.590Z,35.77
2022-09-02T23:55:41.344Z,35.97
2022-09-02T23:58:28.206Z,36.12
